createdAt,value
2017-04-04T00:00:30.271Z,1018.83
2017-04-04T00:05:27.569Z,1018.82
2017-04-04T00:10:24.207Z,1018.74
2017-04-04T00:15:21.372Z,1018.69
2017-04-04T00:20:18.431Z,1018.66
2017-04-04T00:25:15.502Z,1018.72
2017-04-04T00:30:12.188Z,1018.69
2017-04-04T00:35:08.814Z,1018.64
2017-04-04T00:40:07.456Z,1018.62
2017-04-04T00:45:03.693Z,1018.58
2017-04-04T00:50:00.135Z,1018.50
2017-04-04T00:54:57.940Z,1018.55
2017-04-04T00:59:54.436Z,1018.47
2017-04-04T01:04:51.247Z,1018.49
2017-04-04T01:09:47.657Z,1018.35
2017-04-04T01:14:44.079Z,1018.31
2017-04-04T01:19:40.597Z,1018.33
2017-04-04T01:24:37.206Z,1018.31
2017-04-04T01:29:33.874Z,1018.25
2017-04-04T01:34:30.577Z,1018.25
2017-04-04T01:39:27.760Z,1018.24
2017-04-04T01:44:26.284Z,1018.27
2017-04-04T01:49:23.620Z,1018.20
2017-04-04T01:54:19.784Z,1018.15
2017-04-04T02:04:22.989Z,1018.12
2017-04-04T02:09:22.213Z,1018.09
2017-04-04T02:14:20.739Z,1018.09
2017-04-04T02:19:17.979Z,1017.97
2017-04-04T02:24:14.822Z,1018.03
2017-04-04T02:29:11.344Z,1018.02
2017-04-04T02:34:07.762Z,1018.15
2017-04-04T02:44:08.919Z,1018.06
2017-04-04T02:49:05.823Z,1018.02
2017-04-04T02:54:02.872Z,1017.98
2017-04-04T02:59:00.663Z,1017.92
2017-04-04T03:03:57.985Z,1017.99
2017-04-04T03:08:55.013Z,1017.82
2017-04-04T03:13:51.508Z,1017.96
2017-04-04T03:18:49.304Z,1017.76
2017-04-04T03:28:46.266Z,1017.67
2017-04-04T03:33:43.225Z,1017.73
2017-04-04T03:38:40.106Z,1017.76
2017-04-04T03:43:40.167Z,1017.72
2017-04-04T03:48:37.325Z,1017.74
2017-04-04T03:53:34.075Z,1017.78
2017-04-04T03:58:31.506Z,1017.64
2017-04-04T04:03:28.969Z,1017.67
2017-04-04T04:08:27.926Z,1017.70
2017-04-04T04:13:24.028Z,1017.68
2017-04-04T04:18:21.832Z,1017.67
2017-04-04T04:23:18.214Z,1017.69
2017-04-04T04:28:15.524Z,1017.70
2017-04-04T04:33:11.950Z,1017.59
2017-04-04T04:43:13.069Z,1017.64
2017-04-04T04:53:15.477Z,1017.75
2017-04-04T04:58:11.951Z,1017.81
2017-04-04T05:03:08.639Z,1017.80
2017-04-04T05:08:05.310Z,1017.82
2017-04-04T05:13:01.947Z,1017.80
2017-04-04T05:17:58.389Z,1017.84
2017-04-04T05:22:55.330Z,1017.89
2017-04-04T05:27:53.023Z,1017.97
2017-04-04T05:32:50.608Z,1018.01
2017-04-04T05:37:47.009Z,1017.98
2017-04-04T05:42:43.711Z,1018.07
2017-04-04T05:47:40.751Z,1018.14
2017-04-04T05:52:37.686Z,1018.14
2017-04-04T05:57:34.245Z,1018.11
2017-04-04T06:02:30.946Z,1018.09
2017-04-04T06:07:27.112Z,1018.06
2017-04-04T06:12:23.781Z,1018.04
2017-04-04T06:17:20.302Z,1018.12
2017-04-04T06:22:17.992Z,1018.10
2017-04-04T06:27:14.364Z,1018.06
2017-04-04T06:32:11.098Z,1018.12
2017-04-04T06:37:07.719Z,1018.09
2017-04-04T06:42:04.673Z,1018.16
2017-04-04T06:47:01.400Z,1018.10
2017-04-04T06:51:57.937Z,1018.11
2017-04-04T06:56:54.980Z,1018.15
2017-04-04T07:01:51.927Z,1018.21
2017-04-04T07:06:48.776Z,1018.21
2017-04-04T07:11:46.814Z,1018.31
2017-04-04T07:16:43.223Z,1018.25
2017-04-04T07:21:39.823Z,1018.25
2017-04-04T07:26:36.144Z,1018.29
2017-04-04T07:31:33.042Z,1018.22
2017-04-04T07:36:29.932Z,1018.34
2017-04-04T07:41:26.985Z,1018.34
2017-04-04T07:46:23.460Z,1018.35
2017-04-04T07:51:20.045Z,1018.42
2017-04-04T07:56:17.127Z,1018.32
2017-04-04T08:01:14.026Z,1018.42
2017-04-04T08:06:11.740Z,1018.44
2017-04-04T08:11:09.011Z,1018.38
2017-04-04T08:16:05.703Z,1018.50
2017-04-04T08:21:02.940Z,1018.42
2017-04-04T08:25:59.705Z,1018.50
2017-04-04T08:30:57.243Z,1018.46
2017-04-04T08:35:53.512Z,1018.50
2017-04-04T08:40:50.051Z,1018.57
2017-04-04T08:45:46.654Z,1018.58
2017-04-04T08:50:43.022Z,1018.55
2017-04-04T08:55:40.720Z,1018.59
2017-04-04T09:00:36.901Z,1018.62
2017-04-04T09:05:33.144Z,1018.56
2017-04-04T09:10:30.219Z,1018.55
2017-04-04T09:15:26.463Z,1018.62
2017-04-04T09:20:22.957Z,1018.61
2017-04-04T09:25:19.834Z,1018.54
2017-04-04T09:30:17.544Z,1018.61
2017-04-04T09:35:15.866Z,1018.57
2017-04-04T09:40:13.526Z,1018.52
2017-04-04T09:45:10.947Z,1018.51
2017-04-04T09:50:08.050Z,1018.49
2017-04-04T09:55:04.360Z,1018.40
2017-04-04T10:00:00.931Z,1018.37
2017-04-04T10:04:57.444Z,1018.27
2017-04-04T10:09:54.007Z,1018.30
2017-04-04T10:14:51.121Z,1018.34
2017-04-04T10:19:48.307Z,1018.45
2017-04-04T10:24:45.685Z,1018.26
2017-04-04T10:29:43.495Z,1018.32
2017-04-04T10:34:41.901Z,1018.34
2017-04-04T10:39:40.606Z,1018.29
2017-04-04T10:44:38.538Z,1018.32
2017-04-04T10:49:39.864Z,1018.30
2017-04-04T10:54:37.146Z,1018.29
2017-04-04T10:59:34.963Z,1018.29
2017-04-04T11:04:32.229Z,1018.23
2017-04-04T11:09:29.523Z,1018.23
2017-04-04T11:14:26.709Z,1018.12
2017-04-04T11:19:23.804Z,1018.08
2017-04-04T11:24:21.455Z,1018.10
2017-04-04T11:29:19.131Z,1017.98
2017-04-04T11:34:15.309Z,1018.01
2017-04-04T11:39:12.419Z,1017.91
2017-04-04T11:49:15.545Z,1017.87
2017-04-04T11:54:11.308Z,1017.83
2017-04-04T11:59:07.756Z,1017.81
2017-04-04T12:04:05.252Z,1017.72
2017-04-04T12:09:02.988Z,1017.71
2017-04-04T12:13:59.105Z,1017.62
2017-04-04T12:18:56.998Z,1017.64
2017-04-04T12:23:52.571Z,1017.60
2017-04-04T12:28:49.433Z,1017.59
2017-04-04T12:33:46.494Z,1017.61
2017-04-04T12:38:44.361Z,1017.64
2017-04-04T12:43:40.614Z,1017.52
2017-04-04T12:48:35.815Z,1017.50
2017-04-04T12:58:31.955Z,1017.41
2017-04-04T13:03:31.213Z,1017.44
2017-04-04T13:08:26.853Z,1017.36
2017-04-04T13:13:24.030Z,1017.36
2017-04-04T13:18:26.062Z,1017.33
2017-04-04T13:23:23.872Z,1017.27
2017-04-04T13:28:20.463Z,1017.22
2017-04-04T13:33:18.793Z,1017.23
2017-04-04T13:38:15.174Z,1017.24
2017-04-04T13:43:11.022Z,1017.12
2017-04-04T13:48:07.920Z,1017.10
2017-04-04T13:53:03.831Z,1017.07
2017-04-04T13:57:59.999Z,1017.04
2017-04-04T14:02:59.332Z,1016.97
2017-04-04T14:07:55.221Z,1016.96
2017-04-04T14:12:51.945Z,1016.97
2017-04-04T14:17:48.755Z,1016.98
2017-04-04T14:22:45.396Z,1017.02
2017-04-04T14:27:41.832Z,1016.95
2017-04-04T14:32:39.079Z,1016.86
2017-04-04T14:37:38.320Z,1016.79
2017-04-04T14:42:34.715Z,1016.81
2017-04-04T14:47:31.406Z,1016.74
2017-04-04T14:52:28.171Z,1016.82
2017-04-04T14:57:25.820Z,1016.72
2017-04-04T15:02:21.806Z,1016.64
2017-04-04T15:07:20.829Z,1016.67
2017-04-04T15:12:15.834Z,1016.72
2017-04-04T15:17:11.809Z,1016.71
2017-04-04T15:22:08.263Z,1016.69
2017-04-04T15:27:05.138Z,1016.69
2017-04-04T15:32:01.997Z,1016.77
2017-04-04T15:36:58.485Z,1016.64
2017-04-04T15:41:57.405Z,1016.71
2017-04-04T15:46:54.006Z,1016.69
2017-04-04T15:51:51.254Z,1016.68
2017-04-04T15:56:54.633Z,1016.73
2017-04-04T16:01:53.956Z,1016.72
2017-04-04T16:06:52.683Z,1016.68
2017-04-04T16:11:49.842Z,1016.79
2017-04-04T16:16:46.710Z,1016.78
2017-04-04T16:21:43.914Z,1016.74
2017-04-04T16:26:41.366Z,1016.82
2017-04-04T16:31:37.806Z,1016.71
2017-04-04T16:36:35.197Z,1016.69
2017-04-04T16:41:32.788Z,1016.78
2017-04-04T16:46:30.282Z,1016.73
2017-04-04T16:51:26.630Z,1016.73
2017-04-04T16:56:24.480Z,1016.77
2017-04-04T17:01:21.484Z,1016.82
2017-04-04T17:06:19.056Z,1016.79
2017-04-04T17:11:15.250Z,1016.85
2017-04-04T17:16:11.634Z,1016.80
2017-04-04T17:21:09.444Z,1016.85
2017-04-04T17:31:12.727Z,1016.86
2017-04-04T17:36:08.597Z,1016.87
2017-04-04T17:41:05.978Z,1016.79
2017-04-04T17:46:04.843Z,1016.88
2017-04-04T17:51:02.036Z,1016.87
2017-04-04T17:55:58.552Z,1017.08
2017-04-04T18:00:55.907Z,1017.14
2017-04-04T18:10:57.256Z,1017.11
2017-04-04T18:15:54.624Z,1017.12
2017-04-04T18:20:51.729Z,1017.14
2017-04-04T18:25:49.004Z,1017.19
2017-04-04T18:30:45.667Z,1017.26
2017-04-04T18:35:42.477Z,1017.41
2017-04-04T18:40:39.416Z,1017.41
2017-04-04T18:45:37.740Z,1017.47
2017-04-04T18:50:35.095Z,1017.57
2017-04-04T18:55:31.666Z,1017.64
2017-04-04T19:00:28.966Z,1017.59
2017-04-04T19:05:25.402Z,1017.71
2017-04-04T19:10:22.004Z,1017.69
2017-04-04T19:15:19.203Z,1017.62
2017-04-04T19:20:17.263Z,1017.62
2017-04-04T19:25:13.680Z,1017.66
2017-04-04T19:30:14.065Z,1017.61
2017-04-04T19:35:10.900Z,1017.57
2017-04-04T19:40:08.807Z,1017.64
2017-04-04T19:45:05.435Z,1017.68
2017-04-04T19:50:02.215Z,1017.80
2017-04-04T19:54:59.382Z,1017.81
2017-04-04T19:59:56.032Z,1017.83
2017-04-04T20:04:52.635Z,1017.82
2017-04-04T20:09:50.529Z,1017.91
2017-04-04T20:14:47.833Z,1017.91
2017-04-04T20:19:44.650Z,1017.90
2017-04-04T20:24:41.516Z,1017.96
2017-04-04T20:29:37.913Z,1017.94
2017-04-04T20:34:35.270Z,1017.87
2017-04-04T20:39:32.268Z,1017.91
2017-04-04T20:44:35.695Z,1017.85
2017-04-04T20:49:34.623Z,1017.95
2017-04-04T20:54:31.268Z,1017.95
2017-04-04T20:59:28.417Z,1018.03
2017-04-04T21:04:25.157Z,1018.07
2017-04-04T21:09:22.703Z,1018.04
2017-04-04T21:14:20.329Z,1018.13
2017-04-04T21:19:18.379Z,1018.14
2017-04-04T21:24:15.481Z,1018.14
2017-04-04T21:29:13.422Z,1018.20
2017-04-04T21:34:12.002Z,1018.12
2017-04-04T21:39:09.188Z,1018.04
2017-04-04T21:44:08.268Z,1018.11
2017-04-04T21:49:07.655Z,1018.22
2017-04-04T21:54:04.430Z,1018.18
2017-04-04T21:59:01.826Z,1018.15
2017-04-04T22:03:59.750Z,1018.13
2017-04-04T22:08:56.507Z,1018.26
2017-04-04T22:19:01.633Z,1018.32
2017-04-04T22:29:04.411Z,1018.37
2017-04-04T22:34:00.722Z,1018.39
2017-04-04T22:44:07.994Z,1018.30
2017-04-04T22:49:04.973Z,1018.27
2017-04-04T22:54:01.874Z,1018.47
2017-04-04T22:59:00.396Z,1018.42
2017-04-04T23:09:00.736Z,1018.39
2017-04-04T23:13:58.289Z,1018.30
2017-04-04T23:18:55.258Z,1018.35
2017-04-04T23:23:51.879Z,1018.32
2017-04-04T23:28:48.878Z,1018.34
2017-04-04T23:33:45.479Z,1018.27
2017-04-04T23:38:43.458Z,1018.30
2017-04-04T23:43:39.763Z,1018.31
2017-04-04T23:48:36.361Z,1018.22
2017-04-04T23:53:34.483Z,1018.26
2017-04-04T23:58:31.123Z,1018.31
